Flight Track Log - Related Links

Times and Time Zones

All times are in EDT time to prevent confusion due to time zone crossing. See the N273SK flight status page for this flight to view local times or setup timezone preferences in your user account.

Time Position Orientation Groundspeed Altitude Reporting Facility
EDT Latitude Longitude Course Direction KTS MPH feet Rate Location/Type
Mon 03:14:15 PM 40.5811 -73.7986 232° Southwest 242 278 3,400  Level New York Center
Mon 03:15:16 PM 40.5194 -73.8506 213° Southwest 266 306 6,100 2,754 Climbing New York Center
Mon 03:16:00 PM 40.3951 -74.1574 229° Southwest  Level FlightAware Approximate
Mon 03:16:17 PM 40.4781 -73.9142 229° Southwest 278 320 9,000  Level New York Center
Mon 03:17:00 PM 40.3338 -74.2549 232° Southwest  Level FlightAware Approximate
Mon 03:17:17 PM 40.4333 -74.0000 236° Southwest 271 312 11,500  Level New York TRACON
Mon 03:18:00 PM 40.2742 -74.3542 232° Southwest  Level FlightAware Approximate
Mon 03:18:17 PM 40.3833 -74.1000 237° Southwest 306 352 13,300  Level New York TRACON
Mon 03:19:00 PM 40.2187 -74.4521 232° Southwest  Level FlightAware Approximate
Mon 03:19:16 PM 40.3494 -74.1942 245° Southwest 308 354 15,000  Level New York Center
Mon 03:20:16 PM 40.3008 -74.2925 237° Southwest 308 354 16,800 1,000 Climbing New York Center
Mon 03:21:16 PM 40.2494 -74.3986 238° Southwest 335 386 17,000 99 Climbing New York Center
Mon 03:22:17 PM 40.2133 -74.4892 242° Southwest 352 405 17,000 450 Level New York Center
Mon 03:23:16 PM 40.2233 -74.6339 275° West 344 396 17,900 454 Climbing New York Center
Mon 03:24:16 PM 40.2478 -74.7711 283° West 368 423 17,900  Level New York Center
Mon 03:25:17 PM 40.2719 -74.9194 282° West 379 436 17,900  Level New York Center
Mon 03:26:16 PM 40.2944 -75.0514 283° West 374 430 17,900  Level New York Center
Mon 03:27:16 PM 40.3128 -75.1697 282° West 374 430 17,900 50 Level New York Center
Mon 03:28:17 PM 40.3436 -75.2969 288° West 374 430 18,000 50 Climbing New York Center
Mon 03:29:17 PM 40.4139 -75.4186 307° West 374 430 18,000  Level New York Center
Mon 03:30:15 PM 40.4664 -75.5122 306° West 390 449 18,000  Level New York Center
Mon 03:31:15 PM 40.5081 -75.6653 290° West 374 430 18,000 -50 Level New York Center
Mon 03:32:16 PM 40.4619 -75.7711 240° Southwest 339 390 17,900  Descending New York Center
Mon 03:33:17 PM 40.3947 -75.8781 230° Southwest 367 422 18,000  Climbing New York Center
Mon 03:34:17 PM 40.3211 -75.9922 230° Southwest 384 442 17,900 -102 Descending New York Center
Mon 03:35:15 PM 40.2583 -76.0883 229° Southwest 384 442 17,800 -504 Descending New York Center
Mon 03:36:16 PM 40.1847 -76.1942 228° Southwest 379 436 16,900 -1,033 Descending New York Center
Mon 03:37:17 PM 40.1197 -76.2922 229° Southwest 369 425 15,700 -637 Descending New York Center
Mon 03:39:15 PM 40.0167 -76.5167 239° Southwest 372 428 15,000 -235 Descending Potomac TRACON
Mon 03:40:16 PM 39.9667 -76.6333 241° Southwest 377 434 15,000  Level Potomac TRACON
Mon 03:41:16 PM 39.9167 -76.7500 241° Southwest 374 430 15,000  Level Potomac TRACON
Mon 03:42:17 PM 39.8500 -76.8667 233° Southwest 368 423 15,000 -198 Level Potomac TRACON
Mon 03:43:17 PM 39.8000 -76.9667 237° Southwest 366 421 14,600 -550 Descending Potomac TRACON
Mon 03:44:17 PM 39.7500 -77.0833 241° Southwest 364 419 13,900 -900 Descending Potomac TRACON
Mon 03:45:17 PM 39.7000 -77.2000 241° Southwest 357 411 12,800 -1,737 Descending Potomac TRACON
Mon 03:46:11 PM 39.6500 -77.2833 232° Southwest 330 380 10,600 -1,800 Descending Potomac TRACON
Mon 03:47:17 PM 39.5833 -77.3500 218° Southwest 258 297 9,200 -1,238 Descending Potomac TRACON
Mon 03:48:17 PM 39.5333 -77.4000 218° Southwest 265 305 8,000 -1,240 Descending Potomac TRACON
Mon 03:49:18 PM 39.4833 -77.4500 218° Southwest 239 275 6,700 -1,304 Descending Potomac TRACON
Mon 03:50:12 PM 39.4167 -77.4500 180° South 246 283 5,500 -895 Descending Potomac TRACON
Mon 03:51:12 PM 39.3500 -77.4500 180° South 238 274 5,000 -250 Descending Potomac TRACON
Mon 03:52:12 PM 39.2833 -77.4500 180° South 245 282 5,000  Level Potomac TRACON
Mon 03:53:12 PM 39.2167 -77.4500 180° South 248 285 5,000 -600 Level Potomac TRACON
Mon 03:54:12 PM 39.1500 -77.4500 180° South 248 285 3,800 -1,250 Descending Potomac TRACON
Mon 03:55:12 PM 39.0833 -77.4500 180° South 229 264 2,500 -1,158 Descending Potomac TRACON
Mon 03:56:06 PM 39.0333 -77.4667 195° South 153 176 1,600 -1,000 Descending Potomac TRACON

Login

Don't have an account? Register now (free) for customized features, flight alerts, and more!